Flugplatz Westerland/Sylt (EDXW)

Hier findest Du alle Informationen zum Flugplatz Westerland/Sylt (EDXW).

Informationen für Piloten zum Flugplatz Westerland/Sylt

Hier findest Du alle relevanten Informationen, die Du als Pilot benötigst, um Westerland/Sylt anzufliegen.

Flugplatz: Westerland/Sylt ICAO-Code: EDXW
Frequenz Turm: 119,750 Mhz GAFOR Gebiet: 2
Frequenz Ground: 119,750 Mhz Mogas: nein
Platzrunde: N 0 ft Landegebühr: 9 €
Platzhöhe: 51 ft Sunrise: 02:56 Uhr UTC
Pisten: 15/33 - 2.113 m x 45 m, BIT Sunset: 19:51 Uhr UTC

Mitglieder, die in Westerland/Sylt fliegen

Flugwetter am Flugplatz Westerland/Sylt

Die METAR Information stammen aus EDXW.

METAR Code:
2024/04/02 10:20
EDXW 021020Z 28016KT 9999 BKN006 08/07 Q1000

Flugschulen am Flugplatz Westerland/Sylt

Am Flugplatz Westerland/Sylt gibt es leider keine Flugschule.

Benachbarte Flugplätze und Flugschulen

Es gibt 5 weitere Flugplätze in einem Umkreis von 50 km um den Flugplatz Westerland/Sylt.

Flugplatz Wyk auf Föhr EDXY 27.93 km
Flugplatz Tonder EKTD 31.90 km
Flugplatz Leck EDXK 41.79 km
Flugplatz Pellworm EDHP 48.06 km
Flugplatz Bordelum EDWA 49.16 km
Jetzt anmelden

Passwort vergessen

Umfrage Archiv

Wie häufig haltet Ihr die Halbkreisflugregel ein?

Eher häufig!
35.7 %
Immer!
31 %
Hin und wieder!
16.5 %
Nie!
9.4 %
Eher selten!
7.5 %
Stimmen: 255 | Diskussion
Anzeige: Roland Aircraft
Statistik Alle Mitglieder

Aktuell sind 18 Besucher online.

Anzeige: EasyVFR